createdAt,value
2022-11-07T00:02:23.570Z,11.30
2022-11-07T00:04:52.865Z,11.40
2022-11-07T00:07:20.594Z,11.40
2022-11-07T00:09:48.424Z,11.40
2022-11-07T00:12:16.114Z,11.40
2022-11-07T00:14:43.854Z,11.40
2022-11-07T00:17:11.523Z,11.40
2022-11-07T00:19:39.404Z,11.30
2022-11-07T00:22:09.044Z,11.20
2022-11-07T00:24:36.873Z,11.20
2022-11-07T00:27:04.818Z,11.30
2022-11-07T00:29:32.644Z,11.30
2022-11-07T00:32:00.444Z,11.30
2022-11-07T00:34:28.650Z,11.30
2022-11-07T00:36:56.268Z,11.30
2022-11-07T00:39:25.476Z,11.20
2022-11-07T00:41:53.196Z,11.30
2022-11-07T00:44:21.047Z,11.30
2022-11-07T00:46:48.876Z,11.10
2022-11-07T00:49:16.776Z,11.10
2022-11-07T00:51:44.586Z,11.20
2022-11-07T00:54:12.296Z,11.20
2022-11-07T00:56:41.676Z,11.10
2022-11-07T00:59:09.829Z,11.10
2022-11-07T01:01:37.909Z,11.00
2022-11-07T01:04:24.640Z,11.10
2022-11-07T01:06:52.485Z,11.10
2022-11-07T01:09:21.717Z,10.90
2022-11-07T01:11:51.030Z,10.90
2022-11-07T01:14:21.538Z,10.90
2022-11-07T01:16:49.599Z,11.00
2022-11-07T01:19:17.798Z,10.80
2022-11-07T01:21:46.074Z,10.90
2022-11-07T01:24:15.369Z,10.80
2022-11-07T01:26:44.638Z,10.80
2022-11-07T01:29:13.919Z,10.80
2022-11-07T01:31:42.278Z,10.90
2022-11-07T01:34:09.997Z,10.80
2022-11-07T01:36:38.033Z,10.80
2022-11-07T01:39:06.347Z,10.80
2022-11-07T01:41:37.150Z,10.80
2022-11-07T01:44:43.550Z,10.70
2022-11-07T01:47:12.947Z,10.70
2022-11-07T01:49:43.049Z,10.70
2022-11-07T01:52:15.288Z,10.70
2022-11-07T01:54:49.266Z,10.80
2022-11-07T01:57:21.239Z,10.70
2022-11-07T01:59:51.908Z,10.60
2022-11-07T02:02:23.456Z,10.70
2022-11-07T02:04:51.337Z,10.60
2022-11-07T02:07:21.067Z,10.60
2022-11-07T02:09:50.173Z,10.60
2022-11-07T02:12:19.108Z,10.50
2022-11-07T02:14:46.909Z,10.50
2022-11-07T02:17:16.071Z,10.70
2022-11-07T02:19:47.728Z,10.60
2022-11-07T02:22:22.678Z,10.50
2022-11-07T02:24:55.418Z,10.40
2022-11-07T02:27:26.796Z,10.30
2022-11-07T02:29:59.275Z,10.50
2022-11-07T02:32:26.975Z,10.50
2022-11-07T02:34:58.229Z,10.50
2022-11-07T02:37:31.308Z,10.30
2022-11-07T02:40:01.629Z,10.30
2022-11-07T02:42:43.630Z,10.30
2022-11-07T02:45:14.714Z,10.30
2022-11-07T02:47:42.604Z,10.20
2022-11-07T02:50:11.601Z,10.20
2022-11-07T02:52:39.206Z,10.10
2022-11-07T02:55:09.787Z,10.30
2022-11-07T02:57:37.579Z,10.20
2022-11-07T03:00:06.861Z,10.10
2022-11-07T03:02:34.729Z,10.10
2022-11-07T03:05:02.438Z,10.20
2022-11-07T03:07:30.423Z,10.20
2022-11-07T03:09:58.426Z,10.10
2022-11-07T03:12:27.925Z,10.10
2022-11-07T03:14:55.845Z,10.00
2022-11-07T03:17:23.883Z,10.10
2022-11-07T03:19:51.728Z,10.20
2022-11-07T03:22:19.686Z,10.10
2022-11-07T03:24:47.554Z,10.00
2022-11-07T03:27:15.773Z,10.10
2022-11-07T03:29:45.314Z,10.20
2022-11-07T03:32:13.134Z,10.30
2022-11-07T03:34:41.183Z,10.30
2022-11-07T03:37:09.104Z,10.40
2022-11-07T03:39:37.093Z,10.40
2022-11-07T03:42:05.283Z,10.30
2022-11-07T03:44:33.283Z,10.20
2022-11-07T03:47:02.644Z,10.10
2022-11-07T03:49:43.943Z,10.10
2022-11-07T03:52:13.274Z,10.20
2022-11-07T03:54:41.424Z,10.20
2022-11-07T03:57:09.343Z,10.30
2022-11-07T03:59:37.564Z,10.10
2022-11-07T04:02:07.065Z,10.10
2022-11-07T04:04:35.353Z,10.10
2022-11-07T04:07:03.313Z,10.20
2022-11-07T04:09:31.624Z,10.20
2022-11-07T04:12:17.834Z,10.20
2022-11-07T04:15:04.684Z,10.10
2022-11-07T04:17:34.205Z,10.10
2022-11-07T04:20:02.095Z,10.10
2022-11-07T04:22:30.184Z,10.10
2022-11-07T04:24:58.065Z,10.10
2022-11-07T04:27:44.361Z,10.00
2022-11-07T04:30:22.805Z,10.10
2022-11-07T04:32:53.914Z,10.10
2022-11-07T04:35:24.092Z,10.10
2022-11-07T04:37:52.094Z,10.00
2022-11-07T04:40:20.702Z,10.00
2022-11-07T04:42:49.564Z,10.10
2022-11-07T04:45:18.125Z,10.10
2022-11-07T04:47:46.567Z,10.20
2022-11-07T04:50:18.403Z,10.10
2022-11-07T04:52:46.985Z,10.00
2022-11-07T04:55:20.624Z,10.10
2022-11-07T04:57:48.854Z,10.00
2022-11-07T05:00:18.341Z,10.10
2022-11-07T05:02:46.486Z,10.10
2022-11-07T05:05:16.637Z,9.90
2022-11-07T05:07:45.270Z,9.80
2022-11-07T05:10:19.846Z,9.90
2022-11-07T05:12:48.202Z,10.00
2022-11-07T05:15:16.780Z,10.10
2022-11-07T05:17:45.279Z,10.10
2022-11-07T05:20:28.301Z,10.10
2022-11-07T05:23:15.900Z,10.00
2022-11-07T05:25:45.964Z,10.00
2022-11-07T05:28:15.819Z,9.90
2022-11-07T05:30:45.550Z,10.10
2022-11-07T05:33:15.535Z,10.20
2022-11-07T05:35:46.062Z,10.20
2022-11-07T05:38:14.095Z,10.20
2022-11-07T05:40:42.150Z,10.20
2022-11-07T05:43:12.279Z,10.20
2022-11-07T05:45:41.860Z,10.10
2022-11-07T05:48:11.879Z,10.20
2022-11-07T05:50:40.730Z,10.10
2022-11-07T05:53:10.255Z,10.10
2022-11-07T05:55:38.299Z,10.10
2022-11-07T05:58:10.661Z,10.10
2022-11-07T06:00:38.719Z,10.00
2022-11-07T06:03:07.501Z,9.90
2022-11-07T06:05:37.129Z,10.00
2022-11-07T06:08:05.372Z,10.10
2022-11-07T06:10:35.980Z,10.10
2022-11-07T06:13:05.329Z,10.10
2022-11-07T06:15:35.790Z,10.10
2022-11-07T06:18:06.509Z,10.10
2022-11-07T06:20:35.751Z,10.10
2022-11-07T06:23:05.520Z,10.10
2022-11-07T06:25:36.329Z,9.90
2022-11-07T06:28:06.219Z,9.80
2022-11-07T06:30:34.618Z,10.00
2022-11-07T06:33:03.508Z,10.00
2022-11-07T06:35:32.199Z,10.10
2022-11-07T06:38:02.958Z,10.20
2022-11-07T06:40:31.390Z,10.20
2022-11-07T06:43:07.758Z,10.30
2022-11-07T06:45:36.035Z,10.20
2022-11-07T06:48:04.412Z,10.40
2022-11-07T06:50:32.910Z,10.40
2022-11-07T06:53:04.810Z,10.30
2022-11-07T06:55:34.669Z,10.20
2022-11-07T06:58:03.541Z,10.30
2022-11-07T07:00:34.393Z,10.50
2022-11-07T07:03:02.612Z,10.50
2022-11-07T07:05:30.670Z,10.60
2022-11-07T07:07:58.881Z,10.70
2022-11-07T07:10:29.311Z,10.80
2022-11-07T07:12:57.339Z,10.70
2022-11-07T07:15:25.221Z,10.70
2022-11-07T07:17:54.582Z,10.70
2022-11-07T07:20:22.457Z,10.70
2022-11-07T07:22:57.821Z,10.90
2022-11-07T07:25:28.243Z,11.00
2022-11-07T07:27:56.072Z,11.10
2022-11-07T07:30:24.112Z,11.10
2022-11-07T07:32:53.384Z,11.20
2022-11-07T07:35:22.197Z,11.30
2022-11-07T07:37:51.199Z,11.40
2022-11-07T07:40:19.433Z,11.30
2022-11-07T07:42:51.074Z,11.30
2022-11-07T07:45:19.251Z,11.40
2022-11-07T07:47:47.109Z,11.40
2022-11-07T07:50:16.623Z,11.60
2022-11-07T07:52:44.530Z,11.70
2022-11-07T07:55:12.649Z,11.80
2022-11-07T07:57:42.852Z,11.90
2022-11-07T08:00:13.123Z,11.90
2022-11-07T08:02:44.373Z,12.00
2022-11-07T08:05:13.845Z,12.00
2022-11-07T08:07:52.141Z,12.10
2022-11-07T08:10:40.742Z,12.20
2022-11-07T08:13:08.704Z,12.20
2022-11-07T08:15:36.588Z,12.30
2022-11-07T08:18:05.373Z,12.30
2022-11-07T08:20:33.143Z,12.30
2022-11-07T08:23:04.187Z,12.40
2022-11-07T08:25:32.797Z,12.40
2022-11-07T08:28:00.854Z,12.40
2022-11-07T08:30:28.956Z,12.40
2022-11-07T08:33:00.000Z,12.40
2022-11-07T08:35:28.200Z,12.50
2022-11-07T08:37:56.149Z,12.50
2022-11-07T08:40:25.934Z,12.50
2022-11-07T08:42:58.675Z,12.50
2022-11-07T08:45:26.814Z,12.60
2022-11-07T08:47:58.006Z,12.80
2022-11-07T08:50:26.695Z,13.00
2022-11-07T08:52:59.618Z,12.90
2022-11-07T08:55:31.898Z,12.90
2022-11-07T08:58:00.421Z,12.90
2022-11-07T09:00:29.029Z,12.90
2022-11-07T09:03:30.720Z,13.00
2022-11-07T09:05:45.340Z,13.00
2022-11-07T09:08:13.195Z,13.10
2022-11-07T09:10:42.655Z,13.10
2022-11-07T09:13:10.661Z,13.20
2022-11-07T09:15:38.612Z,13.50
2022-11-07T09:18:07.290Z,13.60
2022-11-07T09:20:35.637Z,13.50
2022-11-07T09:23:03.547Z,13.60
2022-11-07T09:25:31.462Z,13.70
2022-11-07T09:28:04.434Z,13.80
2022-11-07T09:30:32.846Z,13.70
2022-11-07T09:33:01.028Z,13.90
2022-11-07T09:35:30.023Z,14.00
2022-11-07T09:37:58.188Z,14.00
2022-11-07T09:40:40.828Z,14.10
2022-11-07T09:43:28.976Z,14.20
2022-11-07T09:46:05.308Z,14.30
2022-11-07T09:48:41.728Z,14.30
2022-11-07T09:51:15.437Z,14.40
2022-11-07T09:53:46.538Z,14.50
2022-11-07T09:56:16.026Z,14.70
2022-11-07T09:58:51.788Z,14.80
2022-11-07T10:01:22.210Z,14.90
2022-11-07T10:04:22.971Z,14.90
2022-11-07T10:06:46.689Z,14.80
2022-11-07T10:09:22.858Z,14.80
2022-11-07T10:11:59.073Z,14.90
2022-11-07T10:14:39.091Z,15.10
2022-11-07T10:17:18.959Z,15.30
2022-11-07T10:20:01.586Z,15.30
2022-11-07T10:22:43.300Z,15.40
2022-11-07T10:25:25.186Z,15.40
2022-11-07T10:28:08.976Z,15.40
2022-11-07T10:30:38.688Z,15.40
2022-11-07T10:33:13.902Z,15.50
2022-11-07T10:35:46.627Z,15.60
2022-11-07T10:38:22.314Z,15.60
2022-11-07T10:40:52.006Z,15.70
2022-11-07T10:43:27.879Z,15.90
2022-11-07T10:45:58.266Z,15.80
2022-11-07T10:48:29.826Z,15.80
2022-11-07T10:50:58.337Z,15.80
2022-11-07T10:53:26.996Z,15.80
2022-11-07T10:55:56.056Z,15.80
2022-11-07T10:58:27.649Z,15.90
2022-11-07T11:01:05.684Z,15.90
2022-11-07T11:03:44.677Z,16.00
2022-11-07T11:06:23.759Z,16.00
2022-11-07T11:08:53.247Z,16.30
2022-11-07T11:11:33.757Z,16.30
2022-11-07T11:14:04.441Z,16.30
2022-11-07T11:16:37.828Z,16.50
2022-11-07T11:19:07.516Z,16.80
2022-11-07T11:21:43.867Z,16.80
2022-11-07T11:24:23.267Z,16.90
2022-11-07T11:26:52.779Z,17.00
2022-11-07T11:29:29.765Z,17.00
2022-11-07T11:32:01.964Z,17.10
2022-11-07T11:34:41.006Z,17.50
2022-11-07T11:37:14.877Z,17.50
2022-11-07T11:39:49.619Z,17.60
2022-11-07T11:42:28.319Z,17.70
2022-11-07T11:45:00.145Z,17.90
2022-11-07T11:47:36.057Z,18.00
2022-11-07T11:50:10.637Z,18.10
2022-11-07T11:52:38.908Z,18.40
2022-11-07T11:55:13.743Z,18.30
2022-11-07T11:57:51.395Z,18.10
2022-11-07T12:00:20.657Z,18.30
2022-11-07T12:03:32.957Z,18.10
2022-11-07T12:06:14.984Z,18.10
2022-11-07T12:09:18.228Z,18.30
2022-11-07T12:11:56.681Z,18.60
2022-11-07T12:14:38.714Z,18.90
2022-11-07T12:17:10.931Z,19.10
2022-11-07T12:19:48.533Z,19.20
2022-11-07T12:22:25.173Z,19.00
2022-11-07T12:24:56.455Z,18.90
2022-11-07T12:27:32.594Z,18.80
2022-11-07T12:30:09.495Z,18.60
2022-11-07T12:32:49.898Z,18.50
2022-11-07T12:35:35.482Z,18.50
2022-11-07T12:38:24.723Z,18.60
2022-11-07T12:41:03.263Z,18.40
2022-11-07T12:43:46.213Z,18.20
2022-11-07T12:46:26.171Z,18.10
2022-11-07T12:49:30.833Z,18.00
2022-11-07T12:52:14.136Z,17.90
2022-11-07T12:54:49.950Z,18.20
2022-11-07T12:57:21.503Z,18.20
2022-11-07T12:59:55.042Z,18.30
2022-11-07T13:02:37.820Z,18.20
2022-11-07T13:05:22.313Z,18.20
2022-11-07T13:07:59.532Z,18.20
2022-11-07T13:10:33.694Z,18.30
2022-11-07T13:13:08.531Z,18.30
2022-11-07T13:16:08.919Z,18.30
2022-11-07T13:18:28.742Z,18.20
2022-11-07T13:21:00.564Z,18.10
2022-11-07T13:23:30.843Z,18.00
2022-11-07T13:25:59.741Z,18.00
2022-11-07T13:28:37.055Z,18.10
2022-11-07T13:31:08.044Z,18.30
2022-11-07T13:33:37.550Z,18.30
2022-11-07T13:36:14.389Z,18.30
2022-11-07T13:38:49.447Z,18.20
2022-11-07T13:41:26.685Z,18.10
2022-11-07T13:44:01.075Z,17.90
2022-11-07T13:46:32.102Z,17.90
2022-11-07T13:49:04.780Z,17.80
2022-11-07T13:51:35.853Z,17.70
2022-11-07T13:54:14.872Z,17.70
2022-11-07T13:56:46.725Z,17.60
2022-11-07T13:59:32.468Z,17.60
2022-11-07T14:02:04.104Z,17.60
2022-11-07T14:04:40.611Z,17.70
2022-11-07T14:07:23.414Z,17.90
2022-11-07T14:09:59.364Z,18.20
2022-11-07T14:12:28.318Z,18.30
2022-11-07T14:14:58.298Z,18.40
2022-11-07T14:17:32.172Z,18.40
2022-11-07T14:20:07.683Z,18.30
2022-11-07T14:22:36.693Z,18.20
2022-11-07T14:25:22.582Z,18.10
2022-11-07T14:27:50.913Z,18.00
2022-11-07T14:30:21.041Z,18.00
2022-11-07T14:32:51.214Z,18.00
2022-11-07T14:35:22.058Z,18.00
2022-11-07T14:37:50.816Z,17.90
2022-11-07T14:40:21.665Z,17.80
2022-11-07T14:42:50.247Z,17.80
2022-11-07T14:45:46.889Z,17.70
2022-11-07T14:48:12.056Z,17.70
2022-11-07T14:50:41.535Z,17.60
2022-11-07T14:53:17.644Z,17.60
2022-11-07T14:55:51.719Z,17.60
2022-11-07T14:58:22.305Z,17.60
2022-11-07T15:00:56.272Z,17.60
2022-11-07T15:03:31.133Z,17.60
2022-11-07T15:05:59.363Z,17.60
2022-11-07T15:08:29.403Z,17.50
2022-11-07T15:11:04.976Z,18.00
2022-11-07T15:13:33.831Z,18.30
2022-11-07T15:16:04.619Z,19.50
2022-11-07T15:18:36.297Z,19.20
2022-11-07T15:21:11.245Z,18.80
2022-11-07T15:23:39.274Z,19.30
2022-11-07T15:26:13.778Z,19.10
2022-11-07T15:28:46.855Z,18.50
2022-11-07T15:31:24.214Z,18.20
2022-11-07T15:33:52.814Z,17.90
2022-11-07T15:36:21.050Z,17.70
2022-11-07T15:38:50.247Z,17.60
2022-11-07T15:41:19.935Z,17.50
2022-11-07T15:43:48.032Z,17.40
2022-11-07T15:46:24.951Z,17.30
2022-11-07T15:48:53.140Z,17.20
2022-11-07T15:51:20.971Z,17.10
2022-11-07T15:53:49.064Z,17.00
2022-11-07T15:56:20.825Z,16.90
2022-11-07T15:58:48.905Z,16.80
2022-11-07T16:01:16.776Z,16.70
2022-11-07T16:03:44.866Z,16.50
2022-11-07T16:06:16.969Z,16.50
2022-11-07T16:08:45.045Z,16.50
2022-11-07T16:11:13.055Z,16.40
2022-11-07T16:13:42.417Z,16.40
2022-11-07T16:16:17.411Z,16.30
2022-11-07T16:18:46.788Z,16.20
2022-11-07T16:21:14.511Z,16.20
2022-11-07T16:23:43.354Z,16.10
2022-11-07T16:26:13.831Z,16.00
2022-11-07T16:28:43.827Z,15.90
2022-11-07T16:31:11.811Z,15.90
2022-11-07T16:33:39.757Z,15.80
2022-11-07T16:36:24.259Z,15.70
2022-11-07T16:38:52.647Z,15.60
2022-11-07T16:41:20.605Z,15.60
2022-11-07T16:43:50.229Z,15.50
2022-11-07T16:46:21.702Z,15.50
2022-11-07T16:48:52.084Z,15.40
2022-11-07T16:51:21.644Z,15.40
2022-11-07T16:53:52.096Z,15.30
2022-11-07T16:56:26.626Z,15.30
2022-11-07T16:58:56.713Z,15.30
2022-11-07T17:01:25.839Z,15.30
2022-11-07T17:03:54.234Z,15.30
2022-11-07T17:06:27.628Z,15.20
2022-11-07T17:09:01.210Z,15.20
2022-11-07T17:11:34.019Z,15.10
2022-11-07T17:14:03.645Z,15.10
2022-11-07T17:16:36.019Z,15.10
2022-11-07T17:19:05.753Z,15.00
2022-11-07T17:21:36.524Z,15.00
2022-11-07T17:24:05.156Z,15.00
2022-11-07T17:26:35.638Z,15.00
2022-11-07T17:29:06.789Z,14.90
2022-11-07T17:31:35.130Z,14.90
2022-11-07T17:34:03.168Z,14.90
2022-11-07T17:36:37.163Z,14.90
2022-11-07T17:39:12.985Z,14.90
2022-11-07T17:41:42.014Z,14.80
2022-11-07T17:44:16.875Z,14.80
2022-11-07T17:46:48.539Z,14.80
2022-11-07T17:49:18.583Z,14.80
2022-11-07T17:51:46.707Z,14.80
2022-11-07T17:54:15.939Z,14.80
2022-11-07T17:56:44.209Z,14.70
2022-11-07T17:59:16.317Z,14.70
2022-11-07T18:01:45.421Z,14.70
2022-11-07T18:04:14.297Z,14.70
2022-11-07T18:06:44.191Z,14.70
2022-11-07T18:09:15.013Z,14.60
2022-11-07T18:11:43.690Z,14.60
2022-11-07T18:14:14.502Z,14.60
2022-11-07T18:16:43.262Z,14.50
2022-11-07T18:19:12.680Z,14.50
2022-11-07T18:21:41.181Z,14.50
2022-11-07T18:24:09.898Z,14.50
2022-11-07T18:26:38.811Z,14.40
2022-11-07T18:29:09.312Z,14.40
2022-11-07T18:31:40.731Z,14.40
2022-11-07T18:34:13.831Z,14.40
2022-11-07T18:36:44.518Z,14.30
2022-11-07T18:39:16.761Z,14.30
2022-11-07T18:41:45.667Z,14.30
2022-11-07T18:44:14.228Z,14.30
2022-11-07T18:46:44.059Z,14.30
2022-11-07T18:49:14.288Z,14.30
2022-11-07T18:51:45.086Z,14.20
2022-11-07T18:54:14.366Z,14.20
2022-11-07T18:56:43.117Z,14.20
2022-11-07T18:59:11.427Z,14.20
2022-11-07T19:01:39.963Z,14.20
2022-11-07T19:04:11.762Z,14.20
2022-11-07T19:06:55.904Z,14.10
2022-11-07T19:09:28.425Z,14.10
2022-11-07T19:11:56.836Z,14.10
2022-11-07T19:14:24.937Z,14.10
2022-11-07T19:16:53.118Z,14.00
2022-11-07T19:19:23.118Z,14.00
2022-11-07T19:21:51.490Z,14.00
2022-11-07T19:24:19.586Z,14.00
2022-11-07T19:26:47.443Z,13.90
2022-11-07T19:29:16.817Z,13.90
2022-11-07T19:31:44.889Z,13.90
2022-11-07T19:34:12.660Z,13.90
2022-11-07T19:36:42.225Z,13.90
2022-11-07T19:39:10.459Z,13.90
2022-11-07T19:41:38.200Z,13.90
2022-11-07T19:44:07.317Z,13.90
2022-11-07T19:46:35.177Z,13.90
2022-11-07T19:49:03.112Z,13.80
2022-11-07T19:51:30.912Z,13.80
2022-11-07T19:54:01.244Z,13.80
2022-11-07T19:56:30.785Z,13.80
2022-11-07T19:59:01.409Z,13.80
2022-11-07T20:01:31.865Z,13.80
2022-11-07T20:04:00.884Z,13.70
2022-11-07T20:06:32.726Z,13.70
2022-11-07T20:09:02.389Z,13.70
2022-11-07T20:11:30.555Z,13.70
2022-11-07T20:14:03.229Z,13.70
2022-11-07T20:16:32.260Z,13.70
2022-11-07T20:19:00.824Z,13.70
2022-11-07T20:21:29.303Z,13.70
2022-11-07T20:23:58.403Z,13.70
2022-11-07T20:26:29.658Z,13.80
2022-11-07T20:28:57.890Z,13.80
2022-11-07T20:31:28.291Z,13.70
2022-11-07T20:33:58.478Z,13.70
2022-11-07T20:36:27.194Z,13.70
2022-11-07T20:38:56.178Z,13.70
2022-11-07T20:41:27.362Z,13.70
2022-11-07T20:43:55.808Z,13.60
2022-11-07T20:46:25.330Z,13.70
2022-11-07T20:48:54.338Z,13.70
2022-11-07T20:51:24.029Z,13.60
2022-11-07T20:53:52.829Z,13.60
2022-11-07T20:56:22.852Z,13.50
2022-11-07T20:58:53.021Z,13.50
2022-11-07T21:01:24.073Z,13.50
2022-11-07T21:03:52.073Z,13.50
2022-11-07T21:06:20.778Z,13.50
2022-11-07T21:08:50.589Z,13.50
2022-11-07T21:11:31.364Z,13.50
2022-11-07T21:14:01.248Z,13.50
2022-11-07T21:19:17.686Z,13.60
2022-11-07T21:21:45.727Z,13.60
2022-11-07T21:24:14.095Z,13.60
2022-11-07T21:26:42.217Z,13.60
2022-11-07T21:29:12.109Z,13.60
2022-11-07T21:31:41.499Z,13.60
2022-11-07T21:34:11.747Z,13.60
2022-11-07T21:36:39.615Z,13.50
2022-11-07T21:39:07.959Z,13.50
2022-11-07T21:41:36.024Z,13.50
2022-11-07T21:44:04.552Z,13.40
2022-11-07T21:46:36.733Z,13.30
2022-11-07T21:49:06.516Z,13.40
2022-11-07T21:51:36.088Z,13.30
2022-11-07T21:54:05.813Z,13.30
2022-11-07T21:56:35.422Z,13.30
2022-11-07T21:59:05.181Z,13.30
2022-11-07T22:01:35.619Z,13.30
2022-11-07T22:04:07.243Z,13.30
2022-11-07T22:06:37.609Z,13.30
2022-11-07T22:09:06.955Z,13.20
2022-11-07T22:11:35.589Z,13.20
2022-11-07T22:14:04.035Z,13.20
2022-11-07T22:16:34.013Z,13.20
2022-11-07T22:19:02.462Z,13.20
2022-11-07T22:21:31.733Z,13.20
2022-11-07T22:23:59.679Z,13.20
2022-11-07T22:26:28.852Z,13.20
2022-11-07T22:28:57.263Z,13.20
2022-11-07T22:31:28.065Z,13.20
2022-11-07T22:33:59.614Z,13.20
2022-11-07T22:36:28.005Z,13.20
2022-11-07T22:38:57.551Z,13.20
2022-11-07T22:41:27.309Z,13.10
2022-11-07T22:43:56.383Z,13.10
2022-11-07T22:46:27.095Z,13.10
2022-11-07T22:48:57.154Z,13.10
2022-11-07T22:51:26.515Z,13.00
2022-11-07T22:53:58.528Z,13.00
2022-11-07T22:56:28.332Z,13.00
2022-11-07T22:58:56.350Z,13.00
2022-11-07T23:01:26.275Z,12.90
2022-11-07T23:03:54.815Z,12.90
2022-11-07T23:06:25.407Z,12.90
2022-11-07T23:08:53.922Z,12.90
2022-11-07T23:14:14.231Z,12.80
2022-11-07T23:16:45.162Z,12.80
2022-11-07T23:19:15.051Z,12.80
2022-11-07T23:21:44.681Z,12.70
2022-11-07T23:24:13.028Z,12.70
2022-11-07T23:26:41.261Z,12.70
2022-11-07T23:29:12.489Z,12.60
2022-11-07T23:31:40.689Z,12.60
2022-11-07T23:34:08.561Z,12.60
2022-11-07T23:36:36.584Z,12.60
2022-11-07T23:39:07.268Z,12.60
2022-11-07T23:41:35.789Z,12.60
2022-11-07T23:44:03.650Z,12.60
2022-11-07T23:46:49.982Z,12.60
2022-11-07T23:49:36.204Z,12.60
2022-11-07T23:52:04.598Z,12.60
2022-11-07T23:54:52.479Z,12.60
2022-11-07T23:57:20.550Z,12.60
